Time;durP1;ratioP1;P1;durP2;ratioP2;P2;SDS_P1;SDS_P2;PMS_P1;PMS_P2;Temp;Humidity;BMP_temperature;BMP_pressure;BME280_temperature;BME280_humidity;BME280_pressure;Samples;Min_cycle;Max_cycle;Signal;HPM_P1;HPM_P2
2022/05/24 00:01:30;;;;;;;3.17;2.50;;;18.90;85.70;;;;;;4998085;28;20438;-92
2022/05/24 00:03:56;;;;;;;2.50;2.30;;;18.90;85.60;;;;;;4999186;28;20927;-91
2022/05/24 00:06:25;;;;;;;2.40;1.90;;;18.90;85.80;;;;;;5000879;28;20192;-92
2022/05/24 00:08:51;;;;;;;2.20;1.90;;;18.80;85.90;;;;;;5001003;28;20419;-91
2022/05/24 00:11:17;;;;;;;2.97;2.40;;;18.80;86.30;;;;;;5001929;28;20476;-91
2022/05/24 00:13:43;;;;;;;3.20;2.13;;;18.80;86.30;;;;;;5019044;28;20921;-91
2022/05/24 00:16:09;;;;;;;5.87;2.30;;;18.80;86.50;;;;;;4998893;28;20700;-92
2022/05/24 00:18:35;;;;;;;2.40;2.20;;;18.80;86.70;;;;;;4998889;28;20214;-92
2022/05/24 00:21:03;;;;;;;3.60;2.30;;;18.70;86.80;;;;;;4999531;28;20421;-91
2022/05/24 00:23:30;;;;;;;4.80;3.10;;;18.70;86.90;;;;;;4999316;28;20287;-92
2022/05/24 00:25:59;;;;;;;2.50;2.30;;;18.70;86.70;;;;;;4998713;28;20421;-92
2022/05/24 00:28:27;;;;;;;2.50;2.30;;;18.70;86.60;;;;;;4999300;28;20445;-92
2022/05/24 00:30:54;;;;;;;2.57;2.27;;;18.60;86.60;;;;;;4999082;28;20568;-92
2022/05/24 00:33:23;;;;;;;2.50;1.97;;;18.60;86.50;;;;;;4998885;28;20509;-92
2022/05/24 00:35:50;;;;;;;4.40;3.30;;;18.60;86.60;;;;;;4999354;28;20429;-92
2022/05/24 00:38:36;;;;;;;3.87;2.27;;;18.60;86.70;;;;;;4999786;28;20440;-92
2022/05/24 00:41:26;;;;;;;2.67;2.47;;;18.60;86.60;;;;;;4979564;28;20944;-92
2022/05/24 00:44:03;;;;;;;2.73;2.00;;;18.60;86.70;;;;;;4981794;28;20415;-92
2022/05/24 00:46:52;;;;;;;2.93;2.40;;;18.60;86.60;;;;;;4983576;28;20438;-92
2022/05/24 00:49:25;;;;;;;2.43;2.20;;;18.60;86.20;;;;;;4994983;28;20471;-92
2022/05/24 00:52:26;;;;;;;2.50;2.30;;;18.60;86.00;;;;;;4987428;28;20454;-92
2022/05/24 00:54:52;;;;;;;2.50;2.30;;;18.60;86.00;;;;;;4967047;28;20434;-92
2022/05/24 00:57:31;;;;;;;2.97;2.67;;;18.50;85.60;;;;;;4979047;28;20462;-93
2022/05/24 01:00:13;;;;;;;3.40;2.40;;;18.50;85.60;;;;;;4979005;28;20506;-91
2022/05/24 01:02:41;;;;;;;2.97;2.67;;;18.50;85.60;;;;;;4978539;28;20540;-93
2022/05/24 01:05:31;;;;;;;2.50;2.30;;;18.50;85.40;;;;;;4977813;28;20414;-92
2022/05/24 01:07:58;;;;;;;3.27;2.23;;;18.50;85.50;;;;;;4976705;28;20443;-92
2022/05/24 01:10:43;;;;;;;2.83;2.23;;;18.40;85.50;;;;;;4977247;28;20474;-92
2022/05/24 01:13:13;;;;;;;2.17;1.97;;;18.40;85.50;;;;;;4977766;28;20484;-91
2022/05/24 01:15:43;;;;;;;3.27;2.80;;;18.40;85.50;;;;;;4982738;28;20460;-92
2022/05/24 01:18:09;;;;;;;4.37;2.43;;;18.40;85.60;;;;;;4981141;28;20864;-92
2022/05/24 01:20:34;;;;;;;3.47;2.20;;;18.40;85.70;;;;;;4998153;28;20422;-92
2022/05/24 01:23:12;;;;;;;2.50;2.20;;;18.40;85.60;;;;;;4981918;28;20452;-92
2022/05/24 01:26:01;;;;;;;3.57;2.17;;;18.30;85.40;;;;;;4999413;28;20167;-92
2022/05/24 01:28:57;;;;;;;2.60;2.40;;;18.30;85.50;;;;;;4999716;28;20431;-92
2022/05/24 01:31:25;;;;;;;2.50;2.30;;;18.30;85.60;;;;;;4992397;28;20481;-92
2022/05/24 01:36:41;;;;;;;3.00;2.67;;;18.30;85.70;;;;;;4999606;28;20437;-92
2022/05/24 01:39:11;;;;;;;2.60;2.17;;;18.30;85.90;;;;;;4981888;28;20422;-92
2022/05/24 01:41:44;;;;;;;3.93;2.50;;;18.30;86.00;;;;;;5000499;28;20835;-92
2022/05/24 01:44:12;;;;;;;2.40;2.20;;;18.30;86.30;;;;;;4989332;28;20485;-92
2022/05/24 01:46:44;;;;;;;2.33;2.13;;;18.30;86.50;;;;;;4986450;28;20504;-92
2022/05/24 01:49:17;;;;;;;2.20;1.90;;;18.30;86.60;;;;;;4979847;28;20425;-92
2022/05/24 01:51:48;;;;;;;3.43;2.50;;;18.20;86.60;;;;;;4998159;28;20437;-92
2022/05/24 01:54:14;;;;;;;2.27;2.10;;;18.30;86.80;;;;;;4980336;28;20460;-92
2022/05/24 01:56:51;;;;;;;3.37;2.60;;;18.20;86.80;;;;;;4996433;28;20446;-92
2022/05/24 01:59:19;;;;;;;2.47;2.00;;;18.30;86.80;;;;;;5002219;28;20388;-92
2022/05/24 02:01:54;;;;;;;2.83;2.63;;;18.30;86.90;;;;;;4980870;28;20446;-92
2022/05/24 02:04:22;;;;;;;2.70;2.07;;;18.20;86.90;;;;;;4979227;28;20835;-91
2022/05/24 02:07:10;;;;;;;1.97;1.87;;;18.30;87.30;;;;;;4980161;28;20441;-92
2022/05/24 02:09:47;;;;;;;4.80;2.60;;;18.30;87.20;;;;;;4996433;28;20465;-92
2022/05/24 02:12:24;;;;;;;2.77;2.50;;;18.30;87.10;;;;;;4978979;28;20477;-92
2022/05/24 02:15:10;;;;;;;3.23;1.90;;;18.30;87.20;;;;;;4996307;28;20775;-92
2022/05/24 02:17:59;;;;;;;2.30;2.10;;;18.30;87.10;;;;;;4979836;28;20500;-92
2022/05/24 02:20:34;;;;;;;2.70;2.33;;;18.40;87.30;;;;;;4996561;28;20422;-92
2022/05/24 02:23:00;;;;;;;3.00;2.33;;;18.30;87.50;;;;;;4979070;28;20457;-92
2022/05/24 02:25:38;;;;;;;2.43;2.23;;;18.30;87.60;;;;;;4978753;28;20421;-91
2022/05/24 02:28:08;;;;;;;3.20;2.90;;;18.30;87.60;;;;;;4979200;28;20511;-92
2022/05/24 02:30:36;;;;;;;2.53;2.10;;;18.20;87.80;;;;;;4981016;28;20480;-92
2022/05/24 02:33:02;;;;;;;3.03;2.47;;;18.30;87.60;;;;;;4978925;28;20429;-92
2022/05/24 02:35:28;;;;;;;2.63;2.40;;;18.30;87.20;;;;;;4978751;28;20428;-92
2022/05/24 02:37:54;;;;;;;2.40;2.17;;;18.30;87.90;;;;;;4978524;28;20200;-92
2022/05/24 02:43:04;;;;;;;3.77;2.27;;;18.30;87.10;;;;;;5000671;28;20592;-92
2022/05/24 02:45:30;;;;;;;2.13;1.93;;;18.30;87.10;;;;;;4982950;28;20469;-92
2022/05/24 02:47:56;;;;;;;5.30;2.73;;;18.30;87.20;;;;;;4981109;28;20828;-91
2022/05/24 02:50:22;;;;;;;2.67;2.17;;;18.20;87.30;;;;;;4981320;28;20231;-93
2022/05/24 02:52:49;;;;;;;4.57;2.20;;;18.30;87.00;;;;;;4998124;28;20422;-92
2022/05/24 02:55:15;;;;;;;2.37;2.17;;;18.30;86.90;;;;;;4980664;28;20421;-91
2022/05/24 02:57:41;;;;;;;2.37;2.17;;;18.30;86.90;;;;;;4981080;28;20433;-92
2022/05/24 03:00:14;;;;;;;3.10;2.20;;;18.20;86.80;;;;;;4980598;28;20445;-92
2022/05/24 03:02:41;;;;;;;2.90;2.33;;;18.20;86.90;;;;;;4998178;28;20445;-92
2022/05/24 03:05:10;;;;;;;2.87;2.30;;;18.20;87.00;;;;;;4982937;28;20789;-92
2022/05/24 03:10:20;;;;;;;2.60;2.00;;;18.30;87.10;;;;;;4997054;28;20496;-92
2022/05/24 03:15:30;;;;;;;2.00;1.80;;;18.30;87.50;;;;;;4995659;28;20190;-91
2022/05/24 03:17:56;;;;;;;2.53;2.33;;;18.30;88.10;;;;;;4978861;28;20445;-92
2022/05/24 03:20:21;;;;;;;2.40;2.20;;;18.30;90.00;;;;;;4996588;28;20172;-92
2022/05/24 03:22:47;;;;;;;2.50;2.30;;;18.30;90.10;;;;;;4980161;28;20199;-92
2022/05/24 03:25:13;;;;;;;2.60;2.40;;;18.30;90.10;;;;;;4979095;28;20648;-94
2022/05/24 03:27:39;;;;;;;2.80;2.00;;;18.40;90.50;;;;;;4978977;28;20429;-92
2022/05/24 03:30:06;;;;;;;3.87;2.77;;;18.30;90.80;;;;;;4981776;28;20211;-92
2022/05/24 03:32:33;;;;;;;3.00;2.77;;;18.40;90.50;;;;;;4979044;28;20938;-92
2022/05/24 03:35:03;;;;;;;2.70;2.40;;;18.40;90.00;;;;;;4997779;28;20476;-92
2022/05/24 03:37:29;;;;;;;2.20;2.07;;;18.40;89.60;;;;;;4979046;28;20434;-92
2022/05/24 03:39:55;;;;;;;2.30;2.10;;;18.40;90.00;;;;;;4982407;28;20420;-92
2022/05/24 03:42:21;;;;;;;2.97;2.30;;;18.40;91.30;;;;;;4983523;28;20723;-91
2022/05/24 03:44:46;;;;;;;24.80;13.23;;;18.40;91.10;;;;;;4983086;28;20679;-89
2022/05/24 03:47:12;;;;;;;2.93;2.43;;;18.30;91.60;;;;;;5001421;28;20214;-90
2022/05/24 03:49:38;;;;;;;3.47;2.40;;;18.30;91.80;;;;;;4999679;28;20480;-91
2022/05/24 03:52:04;;;;;;;3.33;2.60;;;18.30;93.00;;;;;;4983477;28;20252;-91
2022/05/24 03:54:30;;;;;;;3.03;2.70;;;18.20;93.30;;;;;;4983048;28;20183;-91
2022/05/24 03:59:40;;;;;;;4.70;3.23;;;18.10;95.40;;;;;;5001681;28;20250;-91
2022/05/24 04:02:07;;;;;;;3.17;2.80;;;18.00;96.20;;;;;;4984235;28;20543;-93
2022/05/24 04:04:32;;;;;;;4.30;3.13;;;17.90;97.00;;;;;;5000445;28;20414;-92
2022/05/24 04:06:58;;;;;;;5.20;3.27;;;17.70;97.70;;;;;;4985314;28;20453;-93
2022/05/24 04:09:24;;;;;;;5.43;3.13;;;17.50;98.40;;;;;;4987406;28;20508;-91
2022/05/24 04:11:52;;;;;;;4.50;4.00;;;17.40;99.60;;;;;;4984817;28;20204;-91
2022/05/24 04:14:18;;;;;;;3.50;3.20;;;17.20;99.80;;;;;;4981534;28;20188;-92
2022/05/24 04:16:44;;;;;;;4.67;3.20;;;17.10;99.90;;;;;;4997308;28;20477;-92
2022/05/24 04:19:10;;;;;;;3.00;2.70;;;16.90;99.90;;;;;;4998862;28;20258;-92
2022/05/24 04:21:35;;;;;;;6.43;3.50;;;16.80;99.90;;;;;;4999648;28;20192;-91
2022/05/24 04:24:01;;;;;;;4.53;3.50;;;16.70;99.90;;;;;;4997674;28;20215;-92
2022/05/24 04:26:27;;;;;;;5.50;3.90;;;16.70;99.90;;;;;;5002820;28;20184;-90
2022/05/24 04:28:53;;;;;;;4.03;3.33;;;16.60;99.90;;;;;;4999797;28;20493;-91
2022/05/24 04:31:18;;;;;;;3.70;3.40;;;16.60;99.90;;;;;;5001224;28;20207;-91
2022/05/24 04:33:44;;;;;;;4.20;3.00;;;16.50;99.90;;;;;;4999625;28;20180;-91
2022/05/24 04:36:10;;;;;;;3.33;3.07;;;16.40;99.90;;;;;;4999906;28;20176;-92
2022/05/24 04:38:36;;;;;;;6.60;3.90;;;16.30;99.90;;;;;;5000298;28;20212;-91
2022/05/24 04:43:45;;;;;;;3.80;2.87;;;16.30;99.90;;;;;;5000172;28;20215;-93
2022/05/24 04:46:12;;;;;;;4.87;3.20;;;16.30;99.90;;;;;;4982980;28;20426;-92
2022/05/24 04:48:37;;;;;;;4.43;3.03;;;16.20;99.90;;;;;;4981750;28;20216;-92
2022/05/24 04:51:03;;;;;;;6.30;3.30;;;16.20;99.90;;;;;;4984149;28;20682;-92
2022/05/24 04:53:29;;;;;;;4.07;3.13;;;16.30;99.90;;;;;;4983198;28;20665;-92
2022/05/24 04:55:55;;;;;;;5.20;3.43;;;16.30;99.90;;;;;;4984126;28;20428;-91
2022/05/24 04:58:21;;;;;;;3.53;3.23;;;16.30;99.90;;;;;;5000081;28;20261;-92
2022/05/24 05:00:48;;;;;;;4.37;3.80;;;16.30;99.90;;;;;;4981425;28;20452;-93
2022/05/24 05:03:19;;;;;;;7.63;3.70;;;16.30;99.90;;;;;;4987640;28;20512;-91
2022/05/24 05:05:46;;;;;;;5.13;4.23;;;16.30;99.90;;;;;;4980402;28;20429;-92
2022/05/24 05:08:13;;;;;;;7.37;4.20;;;16.20;99.90;;;;;;4997309;28;20448;-93
2022/05/24 05:10:39;;;;;;;4.20;3.50;;;16.20;99.90;;;;;;4980747;28;20856;-92
2022/05/24 05:13:05;;;;;;;3.97;3.67;;;16.20;99.90;;;;;;4983386;28;20535;-92
2022/05/24 05:15:34;;;;;;;4.47;4.07;;;16.10;99.90;;;;;;4997199;28;21385;-92
2022/05/24 05:18:08;;;;;;;6.30;4.07;;;16.00;99.90;;;;;;4981465;28;20452;-91
2022/05/24 05:20:41;;;;;;;8.33;5.17;;;15.90;99.90;;;;;;4979859;28;20535;-92
2022/05/24 05:23:14;;;;;;;6.10;3.97;;;15.90;99.90;;;;;;4977780;28;20473;-91
2022/05/24 05:25:41;;;;;;;7.03;3.53;;;15.90;99.90;;;;;;4997597;28;20425;-92
2022/05/24 05:28:07;;;;;;;6.37;3.23;;;15.80;99.90;;;;;;4997285;28;20430;-93
2022/05/24 05:33:18;;;;;;;6.03;3.67;;;15.80;99.90;;;;;;4997876;28;20463;-92
2022/05/24 05:35:45;;;;;;;4.50;4.10;;;15.70;99.90;;;;;;4980156;28;20445;-91
2022/05/24 05:38:11;;;;;;;6.67;4.30;;;15.70;99.90;;;;;;4979682;28;20207;-91
2022/05/24 05:40:37;;;;;;;4.30;3.60;;;15.70;99.90;;;;;;4979629;28;20440;-92
2022/05/24 05:43:03;;;;;;;5.53;4.40;;;15.70;99.90;;;;;;4996739;28;20441;-92
2022/05/24 05:45:29;;;;;;;6.40;4.83;;;15.60;99.90;;;;;;4994169;28;20441;-92
2022/05/24 05:47:55;;;;;;;6.23;4.53;;;15.60;99.90;;;;;;4997470;28;20448;-91
2022/05/24 05:50:21;;;;;;;4.13;3.73;;;15.60;99.90;;;;;;4978896;28;20485;-92
2022/05/24 05:52:48;;;;;;;4.83;3.83;;;15.70;99.90;;;;;;4996224;28;20207;-92
2022/05/24 05:55:13;;;;;;;4.80;4.27;;;15.70;99.90;;;;;;4979746;28;20483;-93
2022/05/24 05:57:40;;;;;;;4.80;4.10;;;15.70;99.90;;;;;;5000098;28;20437;-92
2022/05/24 06:00:08;;;;;;;5.23;4.43;;;15.70;99.90;;;;;;4992416;28;20180;-93
2022/05/24 06:02:35;;;;;;;4.80;3.70;;;15.80;99.90;;;;;;4990832;28;20538;-92
2022/05/24 06:05:00;;;;;;;6.70;3.90;;;15.80;99.90;;;;;;4992035;28;20429;-92
2022/05/24 06:07:26;;;;;;;6.07;4.60;;;15.90;99.90;;;;;;4979318;28;20449;-92
2022/05/24 06:09:52;;;;;;;6.83;4.40;;;15.90;99.90;;;;;;4976974;28;20207;-92
2022/05/24 06:12:18;;;;;;;5.50;4.47;;;16.00;99.90;;;;;;4990748;28;20191;-92
2022/05/24 06:14:44;;;;;;;7.27;5.43;;;16.00;99.90;;;;;;4972819;28;20437;-91
2022/05/24 06:17:10;;;;;;;5.10;3.87;;;16.10;99.90;;;;;;4959120;28;20814;-92
2022/05/24 06:19:37;;;;;;;5.83;4.70;;;16.20;99.90;;;;;;4972495;28;20429;-92
2022/05/24 06:22:04;;;;;;;6.03;5.23;;;16.30;99.90;;;;;;4981233;28;20465;-92
2022/05/24 06:24:30;;;;;;;4.67;4.10;;;16.30;99.90;;;;;;4995619;28;20437;-92
2022/05/24 06:26:56;;;;;;;4.80;3.90;;;16.30;99.90;;;;;;4995946;28;20484;-91
2022/05/24 06:29:25;;;;;;;4.00;3.70;;;16.40;99.90;;;;;;4979460;28;20425;-91
2022/05/24 06:31:54;;;;;;;4.07;3.60;;;16.40;99.90;;;;;;4979685;28;20468;-92
2022/05/24 06:34:20;;;;;;;4.23;3.83;;;16.50;99.90;;;;;;4979515;28;20534;-92
2022/05/24 06:36:46;;;;;;;5.90;3.83;;;16.60;99.90;;;;;;4979623;28;20906;-92
2022/05/24 06:39:11;;;;;;;6.83;3.57;;;16.70;99.90;;;;;;4998711;28;20215;-92
2022/05/24 06:41:40;;;;;;;3.60;3.20;;;16.70;99.90;;;;;;4998090;28;20446;-92
2022/05/24 06:44:06;;;;;;;5.80;3.60;;;16.70;99.90;;;;;;4979125;28;20184;-92
2022/05/24 06:46:32;;;;;;;48.00;25.40;;;16.80;99.90;;;;;;4979539;28;20584;-93
2022/05/24 06:48:58;;;;;;;5.40;4.63;;;16.80;99.90;;;;;;4997606;28;20406;-92
2022/05/24 06:51:24;;;;;;;5.83;3.50;;;16.90;99.90;;;;;;4994647;28;20500;-91
2022/05/24 06:53:50;;;;;;;5.17;3.23;;;16.90;99.90;;;;;;4991309;28;20184;-92
2022/05/24 06:56:17;;;;;;;3.50;3.20;;;17.00;99.90;;;;;;4979495;28;20188;-92
2022/05/24 06:58:44;;;;;;;4.23;3.67;;;17.00;99.90;;;;;;4993012;28;20467;-93
2022/05/24 07:03:57;;;;;;;5.27;4.30;;;17.00;99.90;;;;;;4993335;28;20476;-92
2022/05/24 07:06:23;;;;;;;3.50;3.20;;;17.10;99.90;;;;;;4974910;28;20442;-92
2022/05/24 07:08:50;;;;;;;6.00;3.90;;;17.10;99.90;;;;;;4963648;28;20443;-91
2022/05/24 07:11:18;;;;;;;7.90;3.77;;;17.10;99.90;;;;;;4976917;28;20580;-92
2022/05/24 07:13:44;;;;;;;3.47;3.17;;;17.10;99.90;;;;;;4990271;28;20891;-92
2022/05/24 07:16:10;;;;;;;5.27;3.80;;;17.10;99.90;;;;;;4974689;28;20488;-92
2022/05/24 07:18:37;;;;;;;4.50;3.30;;;17.20;99.90;;;;;;4986373;28;20243;-92
2022/05/24 07:21:04;;;;;;;4.43;3.17;;;17.20;99.90;;;;;;4985087;28;20429;-92
2022/05/24 07:23:32;;;;;;;4.30;3.77;;;17.30;99.90;;;;;;4978258;28;20820;-92
2022/05/24 07:26:13;;;;;;;4.57;4.07;;;17.30;99.90;;;;;;4972257;28;20457;-92
2022/05/24 07:28:39;;;;;;;3.90;3.10;;;17.30;99.90;;;;;;4966088;28;20449;-92
2022/05/24 07:31:04;;;;;;;4.10;3.10;;;17.30;99.90;;;;;;4985420;28;20486;-92
2022/05/24 07:33:30;;;;;;;5.80;3.43;;;17.30;99.90;;;;;;4989279;28;20466;-92
2022/05/24 07:35:56;;;;;;;6.00;3.87;;;17.40;99.90;;;;;;4988193;28;20187;-92
2022/05/24 07:38:22;;;;;;;3.73;3.43;;;17.40;99.90;;;;;;4994555;28;20478;-93
2022/05/24 07:46:17;;;;;;;4.53;3.73;;;17.50;99.90;;;;;;4972536;28;20527;-92
2022/05/24 07:48:42;;;;;;;3.80;3.40;;;17.50;99.90;;;;;;4977698;28;20427;-93
2022/05/24 07:51:09;;;;;;;6.30;3.63;;;17.60;99.90;;;;;;4963155;28;20484;-92
2022/05/24 07:53:35;;;;;;;4.40;3.80;;;17.60;99.90;;;;;;4963361;28;20220;-92
2022/05/24 07:56:01;;;;;;;4.03;3.20;;;17.60;99.90;;;;;;4984005;28;20480;-92
2022/05/24 07:58:28;;;;;;;4.77;4.30;;;17.70;99.90;;;;;;4983274;28;20540;-92
2022/05/24 08:00:58;;;;;;;56.07;24.90;;;17.70;99.90;;;;;;4966415;28;20492;-93
2022/05/24 08:03:25;;;;;;;5.33;4.23;;;17.80;99.90;;;;;;4966633;28;20880;-93
2022/05/24 08:05:51;;;;;;;4.07;3.50;;;17.80;99.90;;;;;;4991692;28;20476;-91
2022/05/24 08:08:17;;;;;;;3.93;3.30;;;17.90;99.90;;;;;;5001710;28;20445;-92
2022/05/24 08:10:44;;;;;;;5.37;3.20;;;18.00;99.90;;;;;;4978066;28;20677;-93
2022/05/24 08:13:13;;;;;;;3.30;3.00;;;18.00;99.90;;;;;;4966147;28;20452;-90
2022/05/24 08:15:40;;;;;;;4.60;3.47;;;18.00;99.90;;;;;;4963736;28;20639;-92
2022/05/24 08:18:07;;;;;;;5.10;3.63;;;18.00;99.90;;;;;;4988919;28;20516;-93
2022/05/24 08:20:34;;;;;;;3.80;3.50;;;18.00;99.90;;;;;;4966618;28;20444;-92
2022/05/24 08:23:00;;;;;;;9.40;3.43;;;18.10;99.90;;;;;;4963739;28;21086;-92
2022/05/24 08:25:28;;;;;;;4.73;3.60;;;18.20;99.90;;;;;;4987477;28;20445;-92
2022/05/24 08:27:55;;;;;;;3.90;2.80;;;18.20;99.90;;;;;;4975515;28;20528;-92
2022/05/24 08:30:21;;;;;;;3.50;2.93;;;18.30;99.90;;;;;;4972609;28;20485;-92
2022/05/24 08:32:48;;;;;;;4.33;2.80;;;18.40;99.90;;;;;;4989244;28;20433;-92
2022/05/24 08:35:15;;;;;;;4.63;2.93;;;18.50;99.90;;;;;;4976767;28;20823;-92
2022/05/24 08:37:44;;;;;;;2.67;2.40;;;18.50;99.90;;;;;;4969143;28;20450;-92
2022/05/24 08:40:13;;;;;;;3.50;2.43;;;18.60;99.90;;;;;;4965500;28;20429;-93
2022/05/24 08:43:01;;;;;;;2.33;1.83;;;18.60;99.90;;;;;;4973691;28;20461;-93
2022/05/24 08:48:46;;;;;;;2.70;2.40;;;18.80;99.90;;;;;;4986766;28;20436;-92
2022/05/24 08:51:28;;;;;;;3.77;2.60;;;18.80;99.90;;;;;;4993975;28;20481;-92
2022/05/24 08:54:00;;;;;;;4.37;2.73;;;18.90;99.90;;;;;;4979995;28;20418;-92
2022/05/24 08:56:36;;;;;;;2.17;1.97;;;18.90;99.90;;;;;;4975261;28;20438;-93
2022/05/24 08:59:13;;;;;;;2.63;2.23;;;19.00;99.90;;;;;;4975650;28;20992;-92
2022/05/24 09:01:42;;;;;;;2.67;2.43;;;19.10;99.90;;;;;;4972843;28;20671;-92
2022/05/24 09:04:10;;;;;;;3.40;2.60;;;19.10;99.90;;;;;;4972684;28;20429;-92
2022/05/24 09:06:44;;;;;;;2.57;2.37;;;19.20;99.90;;;;;;4976758;28;20484;-93
2022/05/24 09:09:35;;;;;;;2.93;2.73;;;19.30;99.90;;;;;;5002449;28;20428;-91
2022/05/24 09:12:16;;;;;;;2.90;2.60;;;19.40;99.90;;;;;;4972072;28;20535;-93
2022/05/24 09:14:57;;;;;;;2.83;2.60;;;19.50;99.90;;;;;;4991933;28;20439;-92
2022/05/24 09:17:42;;;;;;;4.30;3.43;;;19.60;99.90;;;;;;4987209;28;20482;-92
2022/05/24 09:20:29;;;;;;;3.30;2.70;;;19.70;99.90;;;;;;4989948;28;20701;-93
2022/05/24 09:23:16;;;;;;;3.20;2.90;;;19.80;99.90;;;;;;4973164;28;20980;-92
2022/05/24 09:26:00;;;;;;;2.97;2.60;;;19.90;99.90;;;;;;4975352;28;20463;-93
2022/05/24 09:28:44;;;;;;;3.40;3.17;;;20.00;99.90;;;;;;4991384;28;20561;-94
2022/05/24 09:31:33;;;;;;;4.80;3.80;;;20.10;99.90;;;;;;4992138;28;21081;-93
2022/05/24 09:34:22;;;;;;;3.53;3.23;;;20.20;99.90;;;;;;4977559;28;20443;-93
2022/05/24 09:36:54;;;;;;;5.57;3.97;;;20.40;99.90;;;;;;4970039;28;20549;-92
2022/05/24 09:39:27;;;;;;;4.27;3.50;;;20.50;99.90;;;;;;4992807;28;20786;-91
2022/05/24 09:41:54;;;;;;;3.20;2.93;;;20.60;99.90;;;;;;4994091;28;20480;-92
2022/05/24 09:44:20;;;;;;;3.67;3.27;;;20.70;99.90;;;;;;4972586;28;20424;-91
2022/05/24 09:46:46;;;;;;;3.90;3.50;;;20.70;99.90;;;;;;4972066;28;20524;-92
2022/05/24 09:49:23;;;;;;;6.90;3.63;;;20.70;99.90;;;;;;4969429;28;20429;-92
2022/05/24 09:51:52;;;;;;;4.13;3.40;;;20.80;99.90;;;;;;4973560;28;20472;-92
2022/05/24 09:54:21;;;;;;;4.33;3.87;;;20.80;99.90;;;;;;4991405;28;20440;-91
2022/05/24 09:57:01;;;;;;;4.00;3.60;;;20.90;99.90;;;;;;4976849;28;20456;-91
2022/05/24 09:59:28;;;;;;;3.70;3.30;;;21.00;99.90;;;;;;4998337;28;20449;-92
2022/05/24 10:01:54;;;;;;;5.30;4.60;;;21.10;99.90;;;;;;4990288;28;20460;-93
2022/05/24 10:04:34;;;;;;;5.30;4.80;;;21.20;99.90;;;;;;4971282;28;20484;-92
2022/05/24 10:07:03;;;;;;;5.07;4.57;;;21.40;99.90;;;;;;4992955;28;20527;-93
2022/05/24 10:09:49;;;;;;;5.60;4.13;;;21.40;99.90;;;;;;4977398;28;20836;-93
2022/05/24 10:12:22;;;;;;;4.63;4.03;;;21.40;99.90;;;;;;4976287;28;20571;-92
2022/05/24 10:15:02;;;;;;;5.07;4.57;;;21.40;99.90;;;;;;4988964;28;20452;-93
2022/05/24 10:17:52;;;;;;;5.13;4.17;;;21.40;99.90;;;;;;4971447;28;20490;-93
2022/05/24 10:20:30;;;;;;;4.17;3.77;;;21.50;99.90;;;;;;4968679;28;20464;-92
2022/05/24 10:23:38;;;;;;;4.90;4.00;;;21.50;99.90;;;;;;4971659;28;20521;-91
2022/05/24 10:26:42;;;;;;;4.70;4.20;;;21.60;99.90;;;;;;4969554;28;20863;-92
2022/05/24 10:29:47;;;;;;;5.70;4.30;;;21.60;99.90;;;;;;4967866;28;20481;-93
2022/05/24 10:39:04;;;;;;;4.50;4.07;;;21.50;99.90;;;;;;4969875;28;20497;-92
2022/05/24 10:41:49;;;;;;;4.20;3.80;;;21.40;99.90;;;;;;4961867;28;20451;-92
2022/05/24 10:44:40;;;;;;;4.73;4.33;;;21.40;99.90;;;;;;4968624;28;20471;-92
2022/05/24 10:47:24;;;;;;;4.37;2.80;;;21.40;99.90;;;;;;4949906;28;20986;-92
2022/05/24 10:50:00;;;;;;;4.30;3.90;;;21.40;99.90;;;;;;4966288;28;20477;-93
2022/05/24 10:52:44;;;;;;;3.77;3.33;;;21.40;99.90;;;;;;4967216;28;20472;-92
2022/05/24 10:55:26;;;;;;;4.83;3.90;;;21.40;99.90;;;;;;4985416;28;20473;-92
2022/05/24 10:58:00;;;;;;;4.37;3.97;;;21.50;99.90;;;;;;4968054;28;20461;-92
2022/05/24 11:00:37;;;;;;;5.33;3.63;;;21.50;99.90;;;;;;4966334;28;20990;-93
2022/05/24 11:03:11;;;;;;;5.33;4.93;;;21.70;99.90;;;;;;4970650;28;20484;-91
2022/05/24 11:05:46;;;;;;;4.53;4.13;;;21.70;99.90;;;;;;4967353;28;20836;-92
2022/05/24 11:08:36;;;;;;;5.00;3.37;;;21.80;99.90;;;;;;4971302;28;20516;-93
2022/05/24 11:11:25;;;;;;;4.53;3.33;;;21.90;99.90;;;;;;4968763;28;20494;-92
2022/05/24 11:14:07;;;;;;;3.87;3.57;;;21.90;99.90;;;;;;4960665;28;20435;-92
2022/05/24 11:16:43;;;;;;;3.47;3.17;;;21.90;99.90;;;;;;4965258;28;20485;-92
2022/05/24 11:19:16;;;;;;;3.57;3.03;;;22.00;99.90;;;;;;4982407;28;20454;-93
2022/05/24 11:21:53;;;;;;;3.33;3.03;;;22.00;99.90;;;;;;4967794;28;20450;-92
2022/05/24 11:24:33;;;;;;;3.43;3.13;;;22.00;99.90;;;;;;4981125;28;20445;-91
2022/05/24 11:27:01;;;;;;;5.00;3.13;;;22.10;99.90;;;;;;4982472;28;20454;-92
2022/05/24 11:29:45;;;;;;;4.43;3.40;;;22.10;99.90;;;;;;4964394;28;20430;-91
2022/05/24 11:32:17;;;;;;;3.00;2.60;;;22.20;99.90;;;;;;4970775;28;20581;-92
2022/05/24 11:35:10;;;;;;;3.50;2.90;;;22.20;99.90;;;;;;4970951;28;20418;-92
2022/05/24 11:37:42;;;;;;;4.47;3.20;;;22.20;99.90;;;;;;4970581;28;20465;-91
2022/05/24 11:40:32;;;;;;;5.73;3.40;;;22.30;99.90;;;;;;4980670;28;20411;-91
2022/05/24 11:43:06;;;;;;;4.10;3.63;;;22.40;99.90;;;;;;4972393;28;20469;-92
2022/05/24 11:45:32;;;;;;;7.00;4.13;;;22.40;99.90;;;;;;4985810;28;20438;-92
2022/05/24 11:48:06;;;;;;;4.60;3.40;;;22.50;99.90;;;;;;4964811;28;20474;-92
2022/05/24 11:50:42;;;;;;;2.87;2.67;;;22.60;99.90;;;;;;4963983;28;20478;-93
2022/05/24 11:53:30;;;;;;;3.10;2.80;;;22.60;99.90;;;;;;4963697;28;20467;-92
2022/05/24 11:55:56;;;;;;;3.10;2.80;;;22.70;99.90;;;;;;4969896;28;20525;-92
2022/05/24 11:58:22;;;;;;;3.07;2.87;;;22.80;99.90;;;;;;4969717;28;20573;-92
2022/05/24 12:01:07;;;;;;;3.30;3.00;;;22.90;99.90;;;;;;4972718;28;20181;-91
2022/05/24 12:10:01;;;;;;;3.60;3.30;;;23.00;99.90;;;;;;4969484;28;20520;-91
2022/05/24 12:12:46;;;;;;;4.03;3.50;;;23.00;99.90;;;;;;4971793;28;20450;-91
2022/05/24 12:15:12;;;;;;;4.40;3.80;;;23.10;99.90;;;;;;4970350;28;20780;-90
2022/05/24 12:17:39;;;;;;;4.90;3.87;;;23.10;99.90;;;;;;4997158;28;20564;-91
2022/05/24 12:20:25;;;;;;;4.43;3.40;;;23.10;99.90;;;;;;4997203;28;20188;-91
2022/05/24 12:23:14;;;;;;;4.90;3.63;;;23.20;99.90;;;;;;4995968;28;20457;-92
2022/05/24 12:25:58;;;;;;;5.70;4.07;;;23.20;99.90;;;;;;4976843;28;20469;-90
2022/05/24 12:28:28;;;;;;;4.17;3.53;;;23.30;99.90;;;;;;4974129;28;21037;-91
2022/05/24 12:30:58;;;;;;;3.90;3.43;;;23.30;99.90;;;;;;4972417;28;20477;-90
2022/05/24 12:34:01;;;;;;;3.30;3.00;;;23.30;99.90;;;;;;4989732;28;21033;-91
2022/05/24 12:36:43;;;;;;;4.07;3.67;;;23.40;99.90;;;;;;4986261;28;20452;-92
2022/05/24 12:39:12;;;;;;;3.23;2.93;;;23.50;99.90;;;;;;4973558;28;20442;-92
2022/05/24 12:41:42;;;;;;;3.93;3.53;;;23.50;99.90;;;;;;4992936;28;20462;-93
2022/05/24 12:44:22;;;;;;;4.43;3.70;;;23.50;99.90;;;;;;4975873;28;20446;-93
2022/05/24 12:47:08;;;;;;;3.80;3.50;;;23.60;99.90;;;;;;4973008;28;20560;-93
2022/05/24 12:49:55;;;;;;;4.33;3.63;;;23.70;99.90;;;;;;4969542;28;20422;-93
2022/05/24 12:52:47;;;;;;;4.27;3.90;;;23.70;99.90;;;;;;4972400;28;20459;-96
2022/05/24 12:55:54;;;;;;;3.80;3.50;;;23.80;99.90;;;;;;4973837;28;20789;-96
2022/05/24 12:58:34;;;;;;;3.97;3.10;;;23.80;99.90;;;;;;4987165;28;20498;-96
2022/05/24 13:01:27;;;;;;;6.70;3.63;;;23.80;99.90;;;;;;4975573;28;20442;-95
2022/05/24 13:04:08;;;;;;;4.17;3.77;;;23.80;99.90;;;;;;4969901;28;20437;-94
2022/05/24 13:06:37;;;;;;;3.83;3.50;;;23.90;99.90;;;;;;4984482;28;20466;-95
2022/05/24 13:09:34;;;;;;;3.67;3.37;;;23.90;99.90;;;;;;4989872;28;20426;-96
2022/05/24 13:15:25;;;;;;;4.70;3.57;;;24.00;99.90;;;;;;4899672;29;20442;-97
2022/05/24 13:18:02;;;;;;;4.87;3.80;;;24.00;99.90;;;;;;4985965;28;20579;-96
2022/05/24 13:21:31;;;;;;;9.03;3.53;;;24.00;99.90;;;;;;4980015;28;20513;-96
2022/05/24 13:25:11;;;;;;;4.27;3.93;;;24.00;99.90;;;;;;4940723;29;20436;-96
2022/05/24 13:28:27;;;;;;;4.40;3.60;;;24.10;99.90;;;;;;4941025;28;20629;-95
2022/05/24 13:33:49;;;;;;;4.03;3.10;;;24.20;99.90;;;;;;4936246;29;20499;-96
2022/05/24 13:37:06;;;;;;;5.00;4.00;;;24.20;99.90;;;;;;4931368;29;20689;-96
2022/05/24 13:40:13;;;;;;;4.13;3.33;;;24.30;99.90;;;;;;5008542;28;20460;-96
2022/05/24 13:42:53;;;;;;;3.93;3.40;;;24.30;99.90;;;;;;4993545;23;20463;-75
2022/05/24 13:45:21;;;;;;;4.17;3.77;;;24.40;99.90;;;;;;5006213;28;20478;-78
2022/05/24 13:47:59;;;;;;;4.10;3.70;;;24.40;99.90;;;;;;5005245;28;20508;-77
2022/05/24 13:51:12;;;;;;;4.90;4.40;;;24.40;99.90;;;;;;5009236;28;21026;-77
2022/05/24 13:53:41;;;;;;;5.50;3.90;;;24.40;99.90;;;;;;5003431;28;20949;-76
2022/05/24 13:56:24;;;;;;;3.50;3.20;;;24.40;99.90;;;;;;5006242;28;20526;-78
2022/05/24 13:59:19;;;;;;;4.17;3.87;;;24.40;99.90;;;;;;5020599;28;20439;-74
2022/05/24 14:01:50;;;;;;;3.53;3.17;;;24.50;99.90;;;;;;5004951;28;21266;-77
2022/05/24 14:04:52;;;;;;;4.63;3.93;;;24.50;99.90;;;;;;4998234;28;20484;-76
2022/05/24 14:07:19;;;;;;;3.90;3.60;;;24.60;99.90;;;;;;5002084;28;20458;-77